Flight Track Log - Related Links

Times and Time Zones

All times are in EDT time to prevent confusion due to time zone crossing. See the JBU808 flight status page for this flight to view local times or setup timezone preferences in your user account.

Time Position Orientation Groundspeed Altitude Reporting Facility
EDT Latitude Longitude Course Direction KTS MPH feet Rate Location/Type
Sun 03:04:44 PM 18.5000 -65.9667 360° North 200 230 2,600  Level San Juan Center
Sun 03:05:44 PM 18.5833 -65.9500 11° North 280 322 5,100 2,777 Climbing San Juan Center
Sun 03:06:45 PM 18.6500 -65.9500 360° North 290 334 8,200 3,074 Climbing San Juan Center
Sun 03:07:00 PM 18.8578 -65.9667 North  Level FlightAware Approximate
Sun 03:07:45 PM 18.7333 -65.9667 349° North 280 322 11,300  Level San Juan Center
Sun 03:08:00 PM 18.9646 -65.9667 North  Level FlightAware Approximate
Sun 03:08:46 PM 18.8167 -65.9500 11° North 320 368 12,000  Level San Juan Center
Sun 03:09:00 PM 19.0714 -65.9667 North  Level FlightAware Approximate
Sun 03:09:46 PM 18.9167 -65.9500 360° North 370 426 13,800  Level San Juan Center
Sun 03:10:46 PM 19.0167 -65.9500 360° North 360 414 14,500 1,190 Climbing San Juan Center
Sun 03:11:47 PM 19.1333 -65.9333 North 380 437 16,200 1,785 Climbing San Juan Center
Sun 03:12:47 PM 19.2333 -65.9333 360° North 370 426 18,100 1,850 Climbing San Juan Center
Sun 03:13:47 PM 19.3333 -65.9333 360° North 380 437 19,900 1,636 Climbing San Juan Center
Sun 03:14:48 PM 19.4500 -65.9167 North 400 460 21,400 1,388 Climbing San Juan Center
Sun 03:15:48 PM 19.5667 -65.9167 360° North 410 472 22,700 1,300 Climbing San Juan Center
Sun 03:16:48 PM 19.6833 -65.9167 360° North 420 483 24,000 1,240 Climbing San Juan Center
Sun 03:17:49 PM 19.8000 -65.9000 North 430 495 25,200 1,240 Climbing San Juan Center
Sun 03:18:49 PM 19.9167 -65.9000 360° North 430 495 26,500 1,240 Climbing San Juan Center
Sun 03:19:50 PM 20.0333 -65.8833 North 440 506 27,700 1,091 Climbing San Juan Center
Sun 03:20:50 PM 20.1667 -65.8833 360° North 440 506 28,700 950 Climbing San Juan Center
Sun 03:21:50 PM 20.2833 -65.8833 360° North 450 518 29,600 1,091 Climbing San Juan Center
Sun 03:22:51 PM 20.4167 -65.8667 North 450 518 30,900 1,686 Climbing San Juan Center
Sun 03:23:51 PM 20.5333 -65.8667 360° North 430 495 33,000 1,339 Climbing San Juan Center
Sun 03:24:52 PM 20.6500 -65.8667 360° North 420 483 33,600 893 Climbing San Juan Center
Sun 03:25:52 PM 20.7667 -65.8500 North 420 483 34,800 1,200 Climbing San Juan Center
Sun 03:26:52 PM 20.8833 -65.8500 360° North 420 483 36,000 595 Climbing San Juan Center
Sun 03:27:53 PM 21.0000 -65.8500 360° North 410 472 36,000  Level San Juan Center
Sun 03:28:53 PM 21.1333 -65.8333 North 440 506 36,000  Level San Juan Center
Sun 03:29:53 PM 21.2500 -65.8333 360° North 420 483 36,000  Level San Juan Center
Sun 03:30:54 PM 21.3667 -65.8500 352° North 470 541 36,000  Level San Juan Center
Sun 03:31:54 PM 21.5000 -65.8167 13° North 460 529 36,000  Level San Juan Center
Sun 03:32:54 PM 21.6167 -65.8167 360° North 430 495 36,000  Level San Juan Center
Sun 03:33:55 PM 21.7333 -65.8000 North 460 529 36,000  Level San Juan Center
Sun 03:34:55 PM 21.8500 -65.8000 360° North 410 472 36,000 -50 Level San Juan Center
Sun 03:35:55 PM 21.9667 -65.8000 360° North 400 460 35,900 -44 Descending San Juan Center
Sun 03:37:11 PM 22.1333 -65.7667 10° North 410 472 35,900 58 Level San Juan Center
Sun 03:37:38 PM 22.0667 -65.8000 10° North 436 502 36,000 100 Climbing New York Oceanic (ODAPS)
Sun 03:38:11 PM 22.2500 -65.7333 10° North 440 506 36,000  Level San Juan Center
Sun 03:51:20 PM 23.5000 -65.5333 351° North 401 461 36,000  Level New York Oceanic (ODAPS)
Sun 04:03:59 PM 24.9333 -65.7833 North 424 488 36,000  Level New York Oceanic (ODAPS)
Sun 04:40:51 PM 29.4753 -65.4106 349° North 450 518 36,000  Level New York Center
Sun 04:41:00 PM 29.6225 -65.4613 349° North 424 488 36,000  Level FlightAware Transoceanic
Sun 04:41:53 PM 29.5781 -65.4283 351° North 405 466 36,000  Level New York Center
Sun 04:42:00 PM 29.7255 -65.4836 349° North 424 488 36,000  Level FlightAware Transoceanic
Sun 04:42:51 PM 29.6725 -65.4514 348° North 382 440 36,000  Level New York Center
Sun 04:43:00 PM 29.8284 -65.5060 349° North 424 488 36,000  Level FlightAware Transoceanic
Sun 04:43:52 PM 29.7839 -65.4733 350° North 375 432 36,000  Level New York Center
Sun 04:44:00 PM 29.9313 -65.5285 349° North 424 488 36,000  Level FlightAware Transoceanic
Sun 04:44:54 PM 29.8761 -65.4919 350° North 371 427 36,000  Level New York Center
Sun 04:45:00 PM 30.0342 -65.5510 349° North 424 488 36,000  Level FlightAware Transoceanic
Sun 04:45:52 PM 29.9919 -65.5233 347° North 376 433 36,000  Level New York Center
Sun 04:46:00 PM 30.1371 -65.5735 349° North 424 488 36,000  Level FlightAware Transoceanic
Sun 04:46:52 PM 30.0906 -65.5439 350° North 380 437 36,000  Level New York Center
Sun 04:47:53 PM 30.1828 -65.5625 350° North 370 426 36,000  Level New York Center
Sun 04:48:52 PM 30.2967 -65.5967 345° North 376 433 36,000  Level New York Center
Sun 04:49:53 PM 30.3931 -65.6103 353° North 369 425 36,000  Level New York Center
Sun 04:50:53 PM 30.4878 -65.6361 347° North 377 434 36,000  Level New York Center
Sun 04:51:51 PM 30.5989 -65.6561 351° North 372 428 36,000  Level New York Center
Sun 04:52:52 PM 30.6914 -65.6797 348° North 373 429 36,000  Level New York Center
Sun 04:53:53 PM 30.8006 -65.7047 349° North 373 429 36,000  Level New York Center
Sun 04:54:52 PM 30.8972 -65.7233 351° North 367 422 36,000  Level New York Center
Sun 04:55:52 PM 30.9878 -65.7450 348° North 361 415 36,000  Level New York Center
Sun 04:56:54 PM 31.0969 -65.7700 349° North 355 409 36,000  Level New York Center
Sun 04:57:52 PM 31.1936 -65.7889 351° North 355 409 36,000  Level New York Center
Sun 04:58:53 PM 31.2797 -65.8106 348° North 355 409 36,000  Level New York Center
Sun 04:59:52 PM 31.3892 -65.8361 349° North 355 409 36,000  Level New York Center
Sun 05:00:53 PM 31.4772 -65.8553 349° North 361 415 36,000  Level New York Center
Sun 05:01:52 PM 31.5847 -65.8808 349° North 356 410 36,000  Level New York Center
Sun 05:02:54 PM 31.6833 -65.8997 351° North 356 410 36,000  Level New York Center
Sun 05:03:51 PM 31.7736 -65.9217 348° North 356 410 36,000  Level New York Center
Sun 05:04:51 PM 31.8811 -65.9472 349° North 356 410 36,000  Level New York Center
Sun 05:05:52 PM 31.9778 -65.9689 349° North 356 410 36,000  Level New York Center
Sun 05:06:52 PM 32.0661 -65.9908 348° North 353 406 36,000  Level New York Center
Sun 05:07:52 PM 32.1733 -66.0142 350° North 353 406 36,000  Level New York Center
Sun 05:08:53 PM 32.2722 -66.0383 348° North 353 406 36,000  Level New York Center
Sun 05:09:53 PM 32.3603 -66.0556 351° North 359 413 36,000  Level New York Center
Sun 05:10:51 PM 32.4719 -66.0814 349° North 355 409 36,000  Level New York Center
Sun 05:11:53 PM 32.5581 -66.1011 349° North 355 409 36,000  Level New York Center
Sun 05:12:52 PM 32.6633 -66.1275 348° North 349 402 36,000  Level New York Center
Sun 05:13:52 PM 32.7619 -66.1492 350° North 363 418 36,000 49 Level New York Center
Sun 05:14:54 PM 32.8567 -66.1686 350° North 364 419 36,100  Climbing New York Center
Sun 05:15:51 PM 32.9639 -66.1925 349° North 358 412 36,000 -51 Descending New York Center
Sun 05:16:52 PM 33.0606 -66.2169 348° North 353 406 36,000  Level New York Center
Sun 05:17:53 PM 33.1447 -66.2372 349° North 353 406 36,000  Level New York Center
Sun 05:18:51 PM 33.2500 -66.2639 348° North 355 409 36,000  Level New York Center
Sun 05:19:52 PM 33.3403 -66.2814 351° North 356 410 36,000  Level New York Center
Sun 05:20:51 PM 33.4478 -66.3078 348° North 356 410 36,000  Level New York Center
Sun 05:21:52 PM 33.5444 -66.3278 350° North 362 417 36,000  Level New York Center
Sun 05:22:52 PM 33.6308 -66.3506 348° North 355 409 36,000  Level New York Center
Sun 05:23:51 PM 33.7400 -66.3722 351° North 350 403 36,000  Level New York Center
Sun 05:24:52 PM 33.8347 -66.3972 348° North 355 409 36,000  Level New York Center
Sun 05:25:53 PM 33.9253 -66.4200 348° North 360 414 36,000  Level New York Center
Sun 05:26:51 PM 34.0344 -66.4442 350° North 352 405 36,000  Level New York Center
Sun 05:27:54 PM 34.1231 -66.4672 348° North 357 411 36,000  Level New York Center
Sun 05:28:51 PM 34.2303 -66.4917 349° North 357 411 36,000  Level New York Center
Sun 05:29:52 PM 34.3331 -66.5089 352° North 362 417 36,000 -197 Level New York Center
Sun 05:30:53 PM 34.4175 -66.5372 345° North 355 409 35,600 -738 Descending New York Center
Sun 05:31:54 PM 34.5328 -66.5564 352° North 360 414 34,500 -1,000 Descending New York Center
Sun 05:32:53 PM 34.6300 -66.5892 344° North 374 430 33,600 -1,200 Descending New York Center
Sun 05:33:54 PM 34.7247 -66.6147 347° North 380 437 32,100 -807 Descending New York Center
Sun 05:34:52 PM 34.8506 -66.6336 353° North 391 450 32,000 -51 Descending New York Center
Sun 05:35:52 PM 34.9581 -66.6636 347° North 391 450 32,000  Level New York Center
Sun 06:11:17 PM 38.8931 -67.5769 327° Northwest 458 527 32,000  Level New York Center
Sun 06:12:00 PM 38.6487 -67.8121 347° North  Level Estimated
Sun 06:12:15 PM 38.9986 -67.6206 342° North 428 493 32,000  Level New York Center
Sun 06:13:00 PM 38.7544 -67.8150 359° North  Level FlightAware Approximate
Sun 06:13:16 PM 39.0900 -67.6914 329° Northwest 402 463 32,000  Level New York Center
Sun 06:14:00 PM 38.8431 -67.8886 346° North  Level Estimated
Sun 06:14:16 PM 39.1875 -67.7569 332° Northwest 392 451 32,000  Level New York Center
Sun 06:15:00 PM 38.9320 -67.9626 327° Northwest  Level Estimated
Sun 06:15:17 PM 39.2811 -67.8231 331° Northwest 387 445 32,000  Level New York Center
Sun 06:16:00 PM 39.0209 -68.0368 327° Northwest  Level Estimated
Sun 06:16:15 PM 39.3764 -67.8889 332° Northwest 387 445 32,000  Level New York Center
Sun 06:17:16 PM 39.4697 -67.9550 331° Northwest 382 440 32,000  Level New York Center
Sun 06:18:15 PM 39.5669 -68.0186 333° Northwest 382 440 32,000  Level New York Center
Sun 06:19:16 PM 39.6644 -68.0825 333° Northwest 382 440 32,000  Level New York Center
Sun 06:20:17 PM 39.7597 -68.1517 331° Northwest 382 440 32,000 -151 Level New York Center
Sun 06:21:15 PM 39.8528 -68.2214 330° Northwest 382 440 31,700 -655 Descending New York Center
Sun 06:22:16 PM 39.9522 -68.2828 335° Northwest 382 440 30,700 -992 Descending New York Center
Sun 06:23:16 PM 40.0494 -68.3581 329° Northwest 388 447 29,700 -982 Descending New York Center
Sun 06:25:01 PM 40.2269 -68.4739 334° Northwest 400 460 28,000 -614 Descending Boston Center
Sun 06:26:02 PM 40.3239 -68.5439 331° Northwest 398 458 28,000  Level Boston Center
Sun 06:27:03 PM 40.4219 -68.6119 332° Northwest 399 459 28,000  Level Boston Center
Sun 06:28:05 PM 40.5194 -68.6831 331° Northwest 401 461 28,000  Level Boston Center
Sun 06:29:06 PM 40.6175 -68.7519 332° Northwest 400 460 28,000  Level Boston Center
Sun 06:33:35 PM 41.0723 -69.0819 331° Northwest 395 455 28,000  Level FlightAware ADS-B (ESTA / AGH)
Sun 06:35:37 PM 41.2355 -69.2014 330° Northwest 389 448 28,000  Level FlightAware ADS-B (ESTA / AGH)
Sun 06:36:52 PM 41.3772 -69.3057 331° Northwest 396 456 28,000  Level FlightAware ADS-B (ESTA / AGH)
Sun 06:37:51 PM 41.4792 -69.3812 330° Northwest 389 448 28,000  Level FlightAware ADS-B
Sun 06:38:28 PM 41.5411 -69.4269 330° Northwest 386 444 28,000  Level FlightAware ADS-B
Sun 06:38:59 PM 41.5900 -69.4632 330° Northwest 386 444 28,000  Level FlightAware ADS-B
Sun 06:39:33 PM 41.6435 -69.5030 331° Northwest 392 451 28,000  Level FlightAware ADS-B
Sun 06:40:11 PM 41.7034 -69.5476 331° Northwest 392 451 28,000 -353 Level FlightAware ADS-B
Sun 06:40:41 PM 41.7501 -69.5824 330° Northwest 370 426 27,600 -766 Descending FlightAware ADS-B
Sun 06:40:58 PM 41.7754 -69.6012 330° Northwest 353 406 27,400 -824 Descending FlightAware ADS-B
Sun 06:41:32 PM 41.8258 -69.6389 331° Northwest 354 407 26,900 -982 Descending FlightAware ADS-B
Sun 06:41:53 PM 41.8546 -69.6607 331° Northwest 355 409 26,500 -1,000 Descending FlightAware ADS-B
Sun 06:42:26 PM 41.8997 -69.6950 331° Northwest 356 410 26,000 -952 Descending FlightAware ADS-B
Sun 06:42:56 PM 41.9446 -69.7286 331° Northwest 353 406 25,500 -1,258 Descending FlightAware ADS-B
Sun 06:43:28 PM 41.9863 -69.7599 331° Northwest 349 402 24,700 -1,645 Descending FlightAware ADS-B
Sun 06:43:58 PM 41.9986 -69.7692 331° Northwest 343 395 23,800 -1,837 Descending FlightAware ADS-B
Sun 06:44:17 PM 42.0591 -69.8146 330° Northwest 332 382 23,200 -1,920 Descending FlightAware ADS-B
Sun 06:44:48 PM 42.0999 -69.8456 331° Northwest 332 382 22,200 -1,826 Descending FlightAware ADS-B
Sun 06:45:03 PM 42.1204 -69.8610 330° Northwest 320 368 21,800 -1,655 Descending FlightAware ADS-B
Sun 06:45:17 PM 42.1395 -69.8755 330° Northwest 318 366 21,400 -1,784 Descending FlightAware ADS-B
Sun 06:45:40 PM 42.1690 -69.8978 330° Northwest 315 362 20,700 -1,867 Descending FlightAware ADS-B
Sun 06:46:02 PM 42.1976 -69.9195 331° Northwest 316 364 20,000 -1,745 Descending FlightAware ADS-B
Sun 06:46:35 PM 42.2336 -69.9471 330° Northwest 307 353 19,100 -1,592 Descending FlightAware ADS-B
Sun 06:46:51 PM 42.2564 -69.9645 330° Northwest 298 343 18,700 -1,655 Descending FlightAware ADS-B
Sun 06:47:04 PM 42.2728 -69.9770 330° Northwest 295 339 18,300 -2,129 Descending FlightAware ADS-B
Sun 06:47:22 PM 42.2955 -69.9943 330° Northwest 295 339 17,600 -1,935 Descending FlightAware ADS-B
Sun 06:47:35 PM 42.3111 -70.0062 331° Northwest 299 344 17,300 -1,000 Descending FlightAware ADS-B
Sun 06:47:52 PM 42.3185 -70.0118 331° Northwest 296 341 17,100 -1,529 Descending FlightAware ADS-B (KOWD)
Sun 06:48:26 PM 42.3712 -70.0521 331° Northwest 286 329 16,000 -1,909 Descending FlightAware ADS-B
Sun 06:48:36 PM 42.3834 -70.0613 330° Northwest 277 319 15,700 -1,579 Descending FlightAware ADS-B
Sun 06:48:45 PM 42.3904 -70.0667 331° Northwest 280 322 15,500 -632 Descending FlightAware ADS-B
Sun 06:48:55 PM 42.3882 -70.0650 330° Northwest 282 325 15,500 -1,714 Level FlightAware ADS-B (KOWD)
Sun 06:49:27 PM 42.4402 -70.1047 330° Northwest 273 314 14,300 -1,839 Descending FlightAware ADS-B
Sun 06:49:57 PM 42.4713 -70.1287 330° Northwest 265 305 13,600 -1,377 Descending FlightAware ADS-B
Sun 06:50:28 PM 42.5048 -70.1545 330° Northwest 256 295 12,900 -1,814 Descending FlightAware ADS-B
Sun 06:50:40 PM 42.5171 -70.1641 326° Northwest 251 289 12,300 -3,724 Descending FlightAware ADS-B
Sun 06:50:57 PM 42.5316 -70.1819 301° West 247 284 11,100 -4,250 Descending FlightAware ADS-B
Sun 06:51:04 PM 42.5350 -70.1924 281° West 241 277 10,600 -3,474 Descending FlightAware ADS-B
Sun 06:51:16 PM 42.5359 -70.2097 265° West 239 275 10,000 -2,160 Descending FlightAware ADS-B
Sun 06:51:29 PM 42.5343 -70.1894 236° Southwest 237 273 9,700 -1,714 Descending FlightAware ADS-B
Sun 06:51:44 PM 42.5201 -70.2431 226° Southwest 234 269 9,200 -2,000 Descending FlightAware ADS-B
Sun 06:52:08 PM 42.5201 -70.2431 225° Southwest 226 260 8,400 -1,696 Descending FlightAware ADS-B
Sun 06:52:30 PM 42.4887 -70.2917 240° Southwest 205 236 7,900 -1,935 Descending FlightAware ADS-B
Sun 06:52:39 PM 42.4847 -70.3018 244° Southwest 208 239 7,400 -2,571 Descending FlightAware ADS-B
Sun 06:52:58 PM 42.4774 -70.3247 248° West 213 245 6,700 -2,125 Descending FlightAware ADS-B
Sun 06:53:27 PM 42.4690 -70.3621 256° West 210 242 5,700 -1,787 Descending FlightAware ADS-B
Sun 06:53:45 PM 42.4652 -70.3832 257° West 206 237 5,300 -1,263 Descending FlightAware ADS-B
Sun 06:54:05 PM 42.4607 -70.4088 257° West 205 236 4,900 -615 Descending FlightAware ADS-B
Sun 06:54:24 PM 42.4567 -70.4327 260° West 204 235 4,900 -176 Level FlightAware ADS-B
Sun 06:54:39 PM 42.4535 -70.4522 257° West 206 237 4,800 -522 Descending FlightAware ADS-B
Sun 06:54:47 PM 42.4519 -70.4620 260° West 203 234 4,700 -1,400 Descending FlightAware ADS-B
Sun 06:55:09 PM 42.4473 -70.4894 259° West 206 237 4,100 -1,171 Descending FlightAware ADS-B
Sun 06:55:28 PM 42.4431 -70.5137 259° West 201 231 3,900 -486 Descending FlightAware ADS-B
Sun 06:55:46 PM 42.4393 -70.5356 257° West 214 246 3,800 -154 Descending FlightAware ADS-B
Sun 06:56:07 PM 42.4345 -70.5628 256° West 212 244 3,800  Level FlightAware ADS-B
Sun 06:56:28 PM 42.4297 -70.5905 257° West 214 246 3,800  Level FlightAware ADS-B
Sun 06:56:45 PM 42.4264 -70.6099 260° West 210 242 3,800  Level FlightAware ADS-B
Sun 06:57:08 PM 42.4210 -70.6422 259° West 199 229 3,800  Level FlightAware ADS-B
Sun 06:57:20 PM 42.4190 -70.6536 256° West 187 215 3,800  Level FlightAware ADS-B
Sun 06:57:39 PM 42.4149 -70.6761 259° West 176 203 3,800 250 Level FlightAware ADS-B
Sun 06:57:44 PM 42.4139 -70.6814 259° West 176 203 3,900  Climbing FlightAware ADS-B
Sun 06:57:59 PM 42.4110 -70.6975 257° West 177 204 3,800 -261 Descending FlightAware ADS-B
Sun 06:58:07 PM 42.4095 -70.7066 260° West 175 201 3,800  Level FlightAware ADS-B
Sun 06:58:19 PM 42.4073 -70.7197 260° West 176 203 3,800  Level FlightAware ADS-B
Sun 06:58:26 PM 42.4060 -70.7274 260° West 177 204 3,800 -400 Level FlightAware ADS-B
Sun 06:58:49 PM 42.4017 -70.7525 259° West 176 203 3,600 -769 Descending FlightAware ADS-B
Sun 06:59:05 PM 42.3987 -70.7693 256° West 177 204 3,300 -1,029 Descending FlightAware ADS-B
Sun 06:59:24 PM 42.3955 -70.7873 257° West 179 206 3,000 -1,161 Descending FlightAware ADS-B
Sun 06:59:36 PM 42.3928 -70.8030 259° West 177 204 2,700 -1,071 Descending FlightAware ADS-B
Sun 06:59:52 PM 42.3899 -70.8195 256° West 170 196 2,500 -833 Descending FlightAware ADS-B
Sun 07:00:12 PM 42.3865 -70.8384 256° West 160 184 2,200 -923 Descending FlightAware ADS-B
Sun 07:00:31 PM 42.3831 -70.8582 257° West 156 180 1,900 -840 Descending FlightAware ADS-B
Sun 07:01:02 PM 42.3783 -70.8855 256° West 151 174 1,500 -913 Descending FlightAware ADS-B
Sun 07:01:17 PM 42.3756 -70.9003 256° West 136 157 1,200 -800 Descending FlightAware ADS-B
Sun 07:01:32 PM 42.3738 -70.9108 257° West 128 147 1,100 -571 Descending FlightAware ADS-B
Sun 07:01:59 PM 42.3701 -70.9318 256° West 127 146 800 -581 Descending FlightAware ADS-B
Sun 07:02:34 PM 42.3667 -70.9500 256° West 123 142 500 -514 Descending KA90
Sun 07:04:00 PM 42.3500 -71.0000 246° West  Level FlightAware Approximate
Sun 07:11:00 PM 42.3630 -71.0064 246° West  Level Estimated

Login

Don't have an account? Register now (free) for customized features, flight alerts, and more!